This is the latest recevied weather packets stored in our database for station/object KD4WXI. If no packets are shown the sender has not sent any weather packets the latest 10 day(s).
| Time | Temp. | Humidity | Pressure | Rain* | Wind** | Luminosity | Snow |
|---|---|---|---|---|---|---|---|
| 1778184644 | 15.56° C | 95% | 1009.5 hPa | 0 mm | - | 26 W/m² | - |
| 1778184340 | 16.11° C | 92% | 1009.4 hPa | 0 mm | - | 14 W/m² | - |
| 1778184036 | 16.67° C | 89% | 1009 hPa | 0 mm | - | 20 W/m² | - |
| 1778183733 | 17.22° C | 87% | 1009.1 hPa | 0 mm | - | 26 W/m² | - |
| 1778183431 | 17.78° C | 86% | 1008.8 hPa | 0 mm | - | 20 W/m² | - |
| 1778183127 | 18.33° C | 86% | 1008.6 hPa | 0 mm | - | 53 W/m² | - |
| 1778182823 | 18.89° C | 85% | 1008.7 hPa | 0 mm | - | 38 W/m² | - |
| 1778182520 | 21.67° C | 81% | 1008.7 hPa | 0 mm | - | 22 W/m² | - |
| 1778182217 | 23.33° C | 78% | 1008.4 hPa | 0 mm | - | 819 W/m² | - |
| 1778181913 | 23.89° C | 75% | 1008.2 hPa | 0 mm | - | 181 W/m² | - |
| 1778181610 | 23.33° C | 75% | 1008.2 hPa | 0 mm | - | 542 W/m² | - |
| 1778181306 | 23.33° C | 74% | 1008.4 hPa | 0 mm | - | 197 W/m² | - |
| 1778181003 | 25° C | 69% | 1008.6 hPa | 0 mm | - | 200 W/m² | - |
| 1778180700 | 25° C | 68% | 1008.1 hPa | 0 mm | - | 728 W/m² | - |
| 1778180399 | 24.44° C | 72% | 1008 hPa | 0 mm | - | 731 W/m² | - |
| 1778180096 | 25° C | 68% | 1008.3 hPa | 0 mm | - | 757 W/m² | - |
| 1778179793 | 23.89° C | 75% | 1008.3 hPa | 0 mm | - | 761 W/m² | - |
| 1778179491 | 23.33° C | 74% | 1008.2 hPa | 0 mm | - | 763 W/m² | - |
| 1778179189 | 24.44° C | 75% | 1008.3 hPa | 0 mm | - | 259 W/m² | - |
| 1778178885 | 23.33° C | 75% | 1008.7 hPa | 0 mm | - | 784 W/m² | - |
| 1778178582 | 23.33° C | 80% | 1008.8 hPa | 0 mm | - | 360 W/m² | - |
| 1778178278 | 23.33° C | 78% | 1008.6 hPa | 0 mm | - | 710 W/m² | - |
| 1778177974 | 22.78° C | 77% | 1008.5 hPa | 0 mm | - | 393 W/m² | - |
| 1778177670 | 22.78° C | 75% | 1008.7 hPa | 0 mm | - | 262 W/m² | - |
| 1778177367 | 22.78° C | 81% | 1008.6 hPa | 0 mm | - | 302 W/m² | - |
* Rain latest hour (hover to see other rain measurements)
** Current wind speed in m/s (hover to see current wind gust speed)